createdAt,value
2023-02-13T00:01:53.456Z,9.73
2023-02-13T00:04:19.970Z,9.70
2023-02-13T00:06:47.801Z,9.73
2023-02-13T00:09:14.915Z,9.69
2023-02-13T00:11:41.459Z,9.76
2023-02-13T00:14:07.950Z,9.76
2023-02-13T00:16:34.457Z,9.80
2023-02-13T00:19:00.818Z,9.77
2023-02-13T00:21:27.217Z,9.75
2023-02-13T00:23:53.577Z,9.72
2023-02-13T00:26:19.993Z,9.71
2023-02-13T00:28:46.470Z,9.71
2023-02-13T00:31:15.878Z,9.72
2023-02-13T00:33:42.734Z,9.59
2023-02-13T00:36:14.516Z,9.67
2023-02-13T00:38:42.648Z,9.61
2023-02-13T00:41:09.688Z,9.65
2023-02-13T00:43:36.774Z,9.61
2023-02-13T00:46:04.373Z,9.62
2023-02-13T00:48:33.108Z,9.66
2023-02-13T00:51:00.397Z,9.56
2023-02-13T00:53:27.865Z,9.55
2023-02-13T00:55:54.526Z,9.54
2023-02-13T00:58:21.832Z,9.58
2023-02-13T01:00:48.424Z,9.59
2023-02-13T01:03:15.973Z,9.60
2023-02-13T01:05:43.913Z,9.55
2023-02-13T01:08:11.794Z,9.58
2023-02-13T01:10:39.929Z,9.51
2023-02-13T01:13:06.895Z,9.54
2023-02-13T01:15:33.681Z,9.52
2023-02-13T01:18:00.896Z,9.52
2023-02-13T01:20:28.527Z,9.52
2023-02-13T01:22:55.518Z,9.52
2023-02-13T01:25:21.966Z,9.56
2023-02-13T01:27:48.507Z,9.60
2023-02-13T01:30:16.556Z,9.55
2023-02-13T01:32:44.573Z,9.53
2023-02-13T01:35:13.139Z,9.49
2023-02-13T01:37:39.691Z,9.49
2023-02-13T01:40:08.396Z,9.43
2023-02-13T01:42:35.643Z,9.48
2023-02-13T01:45:05.294Z,9.49
2023-02-13T01:47:59.626Z,9.43
2023-02-13T01:50:39.694Z,9.44
2023-02-13T01:53:24.458Z,9.46
2023-02-13T01:55:56.665Z,9.38
2023-02-13T01:58:30.157Z,9.30
2023-02-13T02:00:57.432Z,9.35
2023-02-13T02:03:36.169Z,9.41
2023-02-13T02:06:03.233Z,9.49
2023-02-13T02:08:31.457Z,9.46
2023-02-13T02:11:09.656Z,9.46
2023-02-13T02:13:36.420Z,9.46
2023-02-13T02:16:02.868Z,9.36
2023-02-13T02:18:29.749Z,9.31
2023-02-13T02:21:08.438Z,9.30
2023-02-13T02:24:20.960Z,9.30
2023-02-13T02:27:29.893Z,9.34
2023-02-13T02:30:14.985Z,9.26
2023-02-13T02:33:04.609Z,9.24
2023-02-13T02:35:49.542Z,9.23
2023-02-13T02:38:29.688Z,9.28
2023-02-13T02:41:41.066Z,9.32
2023-02-13T02:44:27.191Z,9.27
2023-02-13T02:47:45.024Z,9.17
2023-02-13T02:50:26.390Z,9.27
2023-02-13T02:53:12.119Z,9.36
2023-02-13T02:56:14.488Z,9.37
2023-02-13T02:59:05.900Z,9.28
2023-02-13T03:01:52.697Z,9.23
2023-02-13T03:04:52.443Z,9.20
2023-02-13T03:07:20.035Z,9.19
2023-02-13T03:10:18.203Z,9.15
2023-02-13T03:13:20.914Z,9.21
2023-02-13T03:16:09.160Z,9.19
2023-02-13T03:18:59.615Z,9.21
2023-02-13T03:22:06.397Z,9.21
2023-02-13T03:24:38.979Z,9.16
2023-02-13T03:27:09.982Z,9.09
2023-02-13T03:30:07.162Z,9.06
2023-02-13T03:32:46.388Z,9.10
2023-02-13T03:35:50.307Z,9.17
2023-02-13T03:38:36.960Z,9.13
2023-02-13T03:41:20.549Z,9.20
2023-02-13T03:43:56.114Z,9.10
2023-02-13T03:46:26.017Z,9.08
2023-02-13T03:49:13.180Z,9.06
2023-02-13T03:51:55.623Z,9.03
2023-02-13T03:54:47.635Z,9.03
2023-02-13T03:57:38.542Z,9.09
2023-02-13T04:00:09.944Z,9.07
2023-02-13T04:02:42.880Z,9.09
2023-02-13T04:05:15.512Z,8.99
2023-02-13T04:07:41.942Z,9.03
2023-02-13T04:10:15.149Z,9.05
2023-02-13T04:13:06.295Z,9.03
2023-02-13T04:15:41.617Z,9.07
2023-02-13T04:18:30.780Z,9.08
2023-02-13T04:20:57.419Z,9.13
2023-02-13T04:23:24.119Z,9.13
2023-02-13T04:25:53.986Z,9.12
2023-02-13T04:28:20.396Z,9.09
2023-02-13T04:30:46.937Z,9.15
2023-02-13T04:33:13.506Z,9.14
2023-02-13T04:35:39.883Z,9.10
2023-02-13T04:38:06.392Z,9.09
2023-02-13T04:40:32.995Z,9.13
2023-02-13T04:42:59.598Z,9.06
2023-02-13T04:45:26.087Z,9.09
2023-02-13T04:47:54.913Z,9.06
2023-02-13T04:50:21.862Z,9.00
2023-02-13T04:52:52.995Z,8.90
2023-02-13T04:55:19.324Z,9.00
2023-02-13T04:57:45.760Z,9.01
2023-02-13T05:00:12.607Z,8.96
2023-02-13T05:02:39.686Z,9.02
2023-02-13T05:05:06.404Z,8.93
2023-02-13T05:07:32.815Z,8.83
2023-02-13T05:09:59.205Z,8.84
2023-02-13T05:12:25.679Z,8.78
2023-02-13T05:14:52.057Z,8.83
2023-02-13T05:17:18.419Z,8.91
2023-02-13T05:19:44.804Z,8.95
2023-02-13T05:22:30.295Z,8.90
2023-02-13T05:24:56.829Z,8.86
2023-02-13T05:27:23.249Z,8.87
2023-02-13T05:29:49.618Z,8.82
2023-02-13T05:32:16.124Z,8.83
2023-02-13T05:34:42.515Z,8.88
2023-02-13T05:37:08.907Z,8.85
2023-02-13T05:39:35.232Z,8.78
2023-02-13T05:42:04.846Z,8.79
2023-02-13T05:44:31.827Z,8.82
2023-02-13T05:46:58.190Z,8.78
2023-02-13T05:49:24.730Z,8.72
2023-02-13T05:51:52.276Z,8.68
2023-02-13T05:54:18.737Z,8.69
2023-02-13T05:56:45.242Z,8.64
2023-02-13T05:59:12.108Z,8.66
2023-02-13T06:01:38.541Z,8.70
2023-02-13T06:04:05.283Z,8.73
2023-02-13T06:06:31.772Z,8.77
2023-02-13T06:08:58.209Z,8.79
2023-02-13T06:11:24.608Z,8.77
2023-02-13T06:13:51.085Z,8.79
2023-02-13T06:16:17.512Z,8.72
2023-02-13T06:18:43.863Z,8.69
2023-02-13T06:21:10.340Z,8.78
2023-02-13T06:23:36.661Z,8.93
2023-02-13T06:26:08.235Z,8.85
2023-02-13T06:28:35.028Z,8.80
2023-02-13T06:31:02.055Z,8.93
2023-02-13T06:33:28.640Z,8.66
2023-02-13T06:35:54.983Z,8.63
2023-02-13T06:38:21.567Z,8.50
2023-02-13T06:40:49.155Z,8.41
2023-02-13T06:43:16.214Z,8.36
2023-02-13T06:45:42.582Z,8.29
2023-02-13T06:48:09.192Z,8.18
2023-02-13T06:50:35.627Z,8.14
2023-02-13T06:53:02.077Z,8.11
2023-02-13T06:55:28.483Z,8.10
2023-02-13T06:57:54.953Z,8.16
2023-02-13T07:00:21.850Z,8.19
2023-02-13T07:02:48.272Z,8.13
2023-02-13T07:05:15.371Z,8.13
2023-02-13T07:07:42.770Z,8.05
2023-02-13T07:10:12.248Z,8.08
2023-02-13T07:12:38.671Z,8.08
2023-02-13T07:15:06.038Z,8.05
2023-02-13T07:17:33.870Z,8.06
2023-02-13T07:20:00.305Z,8.04
2023-02-13T07:22:26.767Z,8.05
2023-02-13T07:24:53.274Z,8.07
2023-02-13T07:27:19.754Z,8.07
2023-02-13T07:29:46.147Z,8.09
2023-02-13T07:32:12.536Z,8.11
2023-02-13T07:34:42.710Z,8.13
2023-02-13T07:37:15.776Z,8.12
2023-02-13T07:39:42.147Z,8.14
2023-02-13T07:42:08.460Z,8.10
2023-02-13T07:44:34.849Z,8.17
2023-02-13T07:47:01.361Z,8.16
2023-02-13T07:49:27.807Z,8.13
2023-02-13T07:51:56.498Z,8.20
2023-02-13T07:54:22.843Z,8.20
2023-02-13T07:56:49.197Z,8.18
2023-02-13T07:59:15.726Z,8.16
2023-02-13T08:01:42.143Z,8.22
2023-02-13T08:04:08.513Z,8.18
2023-02-13T08:06:34.966Z,8.34
2023-02-13T08:09:30.627Z,8.36
2023-02-13T08:11:57.214Z,8.37
2023-02-13T08:14:25.490Z,8.49
2023-02-13T08:16:52.741Z,8.44
2023-02-13T08:19:19.159Z,8.58
2023-02-13T08:21:45.806Z,8.60
2023-02-13T08:24:13.244Z,8.62
2023-02-13T08:26:39.955Z,8.66
2023-02-13T08:29:07.229Z,8.79
2023-02-13T08:31:33.794Z,8.88
2023-02-13T08:34:00.244Z,8.93
2023-02-13T08:36:26.671Z,9.04
2023-02-13T08:38:53.145Z,9.09
2023-02-13T08:41:22.320Z,9.16
2023-02-13T08:43:49.833Z,9.16
2023-02-13T08:46:17.357Z,9.32
2023-02-13T08:48:43.909Z,9.44
2023-02-13T08:51:12.326Z,9.48
2023-02-13T08:53:39.506Z,9.55
2023-02-13T08:56:06.610Z,9.63
2023-02-13T08:58:33.228Z,9.71
2023-02-13T09:00:59.690Z,9.78
2023-02-13T09:03:26.134Z,9.81
2023-02-13T09:05:52.677Z,9.82
2023-02-13T09:08:19.164Z,9.91
2023-02-13T09:10:45.625Z,10.01
2023-02-13T09:13:12.303Z,9.99
2023-02-13T09:15:43.662Z,10.03
2023-02-13T09:18:10.722Z,10.04
2023-02-13T09:20:37.067Z,10.16
2023-02-13T09:23:03.582Z,10.24
2023-02-13T09:25:30.054Z,10.26
2023-02-13T09:27:56.501Z,10.44
2023-02-13T09:30:23.853Z,10.52
2023-02-13T09:32:54.806Z,10.61
2023-02-13T09:35:22.157Z,10.71
2023-02-13T09:37:48.566Z,10.68
2023-02-13T09:40:23.218Z,10.77
2023-02-13T09:42:49.949Z,10.86
2023-02-13T09:45:20.349Z,11.07
2023-02-13T09:47:48.250Z,11.18
2023-02-13T09:50:22.180Z,11.27
2023-02-13T09:52:52.126Z,11.39
2023-02-13T09:55:37.334Z,11.47
2023-02-13T09:58:21.884Z,11.61
2023-02-13T10:00:53.896Z,11.69
2023-02-13T10:03:33.873Z,11.65
2023-02-13T10:06:06.242Z,11.63
2023-02-13T10:08:42.552Z,11.53
2023-02-13T10:11:12.148Z,11.64
2023-02-13T10:13:58.182Z,11.73
2023-02-13T10:16:36.642Z,11.89
2023-02-13T10:19:24.127Z,11.87
2023-02-13T10:21:58.716Z,11.97
2023-02-13T10:24:43.855Z,12.12
2023-02-13T10:27:19.222Z,12.19
2023-02-13T10:30:09.336Z,12.21
2023-02-13T10:33:11.172Z,12.22
2023-02-13T10:35:38.995Z,12.26
2023-02-13T10:38:15.856Z,12.46
2023-02-13T10:40:53.836Z,12.53
2023-02-13T10:43:24.714Z,12.58
2023-02-13T10:46:11.657Z,12.59
2023-02-13T10:48:38.027Z,12.74
2023-02-13T10:51:19.839Z,12.81
2023-02-13T10:53:58.279Z,12.85
2023-02-13T10:56:39.856Z,12.96
2023-02-13T10:59:30.662Z,13.05
2023-02-13T11:02:03.423Z,13.05
2023-02-13T11:04:30.305Z,13.15
2023-02-13T11:07:02.230Z,13.23
2023-02-13T11:09:33.892Z,13.26
2023-02-13T11:12:27.629Z,13.36
2023-02-13T11:15:06.274Z,13.46
2023-02-13T11:17:36.538Z,13.53
2023-02-13T11:20:22.002Z,13.59
2023-02-13T11:22:49.180Z,13.37
2023-02-13T11:25:22.935Z,13.54
2023-02-13T11:27:50.843Z,13.68
2023-02-13T11:30:23.185Z,13.75
2023-02-13T11:33:05.485Z,13.79
2023-02-13T11:35:34.839Z,13.72
2023-02-13T11:38:18.155Z,13.76
2023-02-13T11:41:05.958Z,13.79
2023-02-13T11:43:49.332Z,13.80
2023-02-13T11:46:19.448Z,13.90
2023-02-13T11:49:06.475Z,13.93
2023-02-13T11:51:48.193Z,13.93
2023-02-13T11:54:26.610Z,13.99
2023-02-13T11:57:05.094Z,14.03
2023-02-13T11:59:39.990Z,14.17
2023-02-13T12:02:18.799Z,14.28
2023-02-13T12:04:46.383Z,14.35
2023-02-13T12:07:17.717Z,14.36
2023-02-13T12:09:47.170Z,14.43
2023-02-13T12:12:22.692Z,14.42
2023-02-13T12:14:49.353Z,14.48
2023-02-13T12:17:32.669Z,14.56
2023-02-13T12:19:59.997Z,14.54
2023-02-13T12:23:04.045Z,14.60
2023-02-13T12:25:46.326Z,14.68
2023-02-13T12:28:28.677Z,14.84
2023-02-13T12:31:18.314Z,14.93
2023-02-13T12:34:12.579Z,15.04
2023-02-13T12:36:41.982Z,15.26
2023-02-13T12:39:25.536Z,15.41
2023-02-13T12:42:22.190Z,15.63
2023-02-13T12:45:05.508Z,15.85
2023-02-13T12:47:47.665Z,16.17
2023-02-13T12:50:17.090Z,16.29
2023-02-13T12:53:06.393Z,16.54
2023-02-13T12:55:50.241Z,16.58
2023-02-13T12:58:58.428Z,16.57
2023-02-13T13:01:31.484Z,16.56
2023-02-13T13:04:00.829Z,16.45
2023-02-13T13:06:33.329Z,16.59
2023-02-13T13:09:11.813Z,16.44
2023-02-13T13:11:57.544Z,16.21
2023-02-13T13:14:46.422Z,16.42
2023-02-13T13:17:35.764Z,16.53
2023-02-13T13:20:14.245Z,16.59
2023-02-13T13:22:58.134Z,16.54
2023-02-13T13:26:01.559Z,16.53
2023-02-13T13:28:41.823Z,16.58
2023-02-13T13:31:08.834Z,16.45
2023-02-13T13:33:39.452Z,16.55
2023-02-13T13:36:20.738Z,16.51
2023-02-13T13:39:14.574Z,16.42
2023-02-13T13:41:50.044Z,16.51
2023-02-13T13:44:45.810Z,16.83
2023-02-13T13:47:26.380Z,16.66
2023-02-13T13:49:55.619Z,16.84
2023-02-13T13:52:34.210Z,17.19
2023-02-13T13:55:04.284Z,17.53
2023-02-13T13:57:39.361Z,17.69
2023-02-13T14:00:08.784Z,17.70
2023-02-13T14:02:40.083Z,17.99
2023-02-13T14:05:29.530Z,18.46
2023-02-13T14:08:23.561Z,18.94
2023-02-13T14:10:49.816Z,19.46
2023-02-13T14:13:42.040Z,19.30
2023-02-13T14:16:12.318Z,19.70
2023-02-13T14:18:46.551Z,20.13
2023-02-13T14:21:23.287Z,20.49
2023-02-13T14:23:52.567Z,20.91
2023-02-13T14:26:30.211Z,21.07
2023-02-13T14:29:02.010Z,21.08
2023-02-13T14:31:31.919Z,21.47
2023-02-13T14:34:05.992Z,21.87
2023-02-13T14:36:41.306Z,22.19
2023-02-13T14:39:24.208Z,22.36
2023-02-13T14:41:56.499Z,22.60
2023-02-13T14:44:50.856Z,22.47
2023-02-13T14:47:33.988Z,22.59
2023-02-13T14:50:04.151Z,22.94
2023-02-13T14:52:37.670Z,22.56
2023-02-13T14:55:12.977Z,22.61
2023-02-13T14:57:46.905Z,22.83
2023-02-13T15:00:25.399Z,22.99
2023-02-13T15:02:58.642Z,22.92
2023-02-13T15:05:33.904Z,22.23
2023-02-13T15:08:30.537Z,21.96
2023-02-13T15:10:57.384Z,21.49
2023-02-13T15:13:37.170Z,20.57
2023-02-13T15:16:07.967Z,19.88
2023-02-13T15:18:48.555Z,19.24
2023-02-13T15:21:18.418Z,18.76
2023-02-13T15:23:50.275Z,18.36
2023-02-13T15:26:26.346Z,18.01
2023-02-13T15:29:00.491Z,17.75
2023-02-13T15:31:38.189Z,17.41
2023-02-13T15:34:29.487Z,17.23
2023-02-13T15:36:56.409Z,16.93
2023-02-13T15:39:26.004Z,16.82
2023-02-13T15:41:55.992Z,16.74
2023-02-13T15:44:27.355Z,16.65
2023-02-13T15:46:56.137Z,16.52
2023-02-13T15:49:25.458Z,16.33
2023-02-13T15:52:06.560Z,16.25
2023-02-13T15:54:35.463Z,16.14
2023-02-13T15:57:06.885Z,16.05
2023-02-13T15:59:39.598Z,15.93
2023-02-13T16:02:14.978Z,15.82
2023-02-13T16:04:42.465Z,15.72
2023-02-13T16:07:11.946Z,15.60
2023-02-13T16:09:38.461Z,15.54
2023-02-13T16:12:17.191Z,15.49
2023-02-13T16:14:49.431Z,15.31
2023-02-13T16:17:42.229Z,15.33
2023-02-13T16:20:11.946Z,15.30
2023-02-13T16:22:45.536Z,15.22
2023-02-13T16:25:11.930Z,15.18
2023-02-13T16:27:47.621Z,15.16
2023-02-13T16:30:51.391Z,15.09
2023-02-13T16:33:29.276Z,15.01
2023-02-13T16:36:16.264Z,14.95
2023-02-13T16:38:45.212Z,14.86
2023-02-13T16:41:17.719Z,14.85
2023-02-13T16:43:45.405Z,14.67
2023-02-13T16:46:11.826Z,14.65
2023-02-13T16:48:38.638Z,14.41
2023-02-13T16:51:05.234Z,14.33
2023-02-13T16:53:34.006Z,14.18
2023-02-13T16:56:07.638Z,14.18
2023-02-13T16:58:34.089Z,14.10
2023-02-13T17:01:02.788Z,14.04
2023-02-13T17:03:31.442Z,13.98
2023-02-13T17:06:01.894Z,13.98
2023-02-13T17:08:28.251Z,13.92
2023-02-13T17:11:06.235Z,13.82
2023-02-13T17:13:33.638Z,13.78
2023-02-13T17:16:00.227Z,13.69
2023-02-13T17:18:27.448Z,13.65
2023-02-13T17:20:54.677Z,13.60
2023-02-13T17:23:24.475Z,13.60
2023-02-13T17:25:53.522Z,13.60
2023-02-13T17:28:24.144Z,13.58
2023-02-13T17:30:52.204Z,13.53
2023-02-13T17:33:24.763Z,13.50
2023-02-13T17:35:52.236Z,13.46
2023-02-13T17:38:19.024Z,13.40
2023-02-13T17:40:45.714Z,13.34
2023-02-13T17:43:14.298Z,13.24
2023-02-13T17:45:41.191Z,13.07
2023-02-13T17:48:07.901Z,12.89
2023-02-13T17:50:35.778Z,12.77
2023-02-13T17:53:05.483Z,12.73
2023-02-13T17:55:33.833Z,12.69
2023-02-13T17:58:00.796Z,12.64
2023-02-13T18:00:30.192Z,12.53
2023-02-13T18:02:59.143Z,12.43
2023-02-13T18:05:25.741Z,12.43
2023-02-13T18:07:52.134Z,12.40
2023-02-13T18:10:22.396Z,12.42
2023-02-13T18:12:50.484Z,12.43
2023-02-13T18:15:17.395Z,12.44
2023-02-13T18:17:44.233Z,12.36
2023-02-13T18:20:13.762Z,12.27
2023-02-13T18:22:40.569Z,12.12
2023-02-13T18:25:07.822Z,12.01
2023-02-13T18:27:34.310Z,11.98
2023-02-13T18:30:00.721Z,11.86
2023-02-13T18:32:27.247Z,11.80
2023-02-13T18:34:53.695Z,11.66
2023-02-13T18:37:20.181Z,11.59
2023-02-13T18:39:46.610Z,11.48
2023-02-13T18:42:13.299Z,11.39
2023-02-13T18:44:40.568Z,11.27
2023-02-13T18:47:07.175Z,11.23
2023-02-13T18:49:33.565Z,11.21
2023-02-13T18:52:01.563Z,11.20
2023-02-13T18:54:28.218Z,11.16
2023-02-13T18:56:54.646Z,11.16
2023-02-13T18:59:22.782Z,11.13
2023-02-13T19:01:49.970Z,11.02
2023-02-13T19:04:16.414Z,11.03
2023-02-13T19:06:44.139Z,11.09
2023-02-13T19:09:10.870Z,11.12
2023-02-13T19:11:38.814Z,11.15
2023-02-13T19:14:06.124Z,11.02
2023-02-13T19:16:34.291Z,10.93
2023-02-13T19:19:03.213Z,10.93
2023-02-13T19:21:32.227Z,10.87
2023-02-13T19:23:58.703Z,10.77
2023-02-13T19:26:26.975Z,10.69
2023-02-13T19:28:55.739Z,10.71
2023-02-13T19:31:25.293Z,10.77
2023-02-13T19:33:52.647Z,10.75
2023-02-13T19:36:23.054Z,10.80
2023-02-13T19:38:55.176Z,10.82
2023-02-13T19:41:21.862Z,10.77
2023-02-13T19:43:51.806Z,10.65
2023-02-13T19:46:20.659Z,10.62
2023-02-13T19:48:47.461Z,10.63
2023-02-13T19:51:16.255Z,10.71
2023-02-13T19:53:42.997Z,10.69
2023-02-13T19:56:10.733Z,10.68
2023-02-13T19:58:38.335Z,10.65
2023-02-13T20:01:15.587Z,10.57
2023-02-13T20:03:42.744Z,10.61
2023-02-13T20:06:12.889Z,10.56
2023-02-13T20:08:41.355Z,10.63
2023-02-13T20:11:14.296Z,10.69
2023-02-13T20:13:40.740Z,10.64
2023-02-13T20:16:08.945Z,10.66
2023-02-13T20:18:36.589Z,10.60
2023-02-13T20:21:07.564Z,10.56
2023-02-13T20:23:34.118Z,10.57
2023-02-13T20:26:05.607Z,10.49
2023-02-13T20:28:32.065Z,10.49
2023-02-13T20:30:58.919Z,10.42
2023-02-13T20:33:26.294Z,10.41
2023-02-13T20:35:52.720Z,10.30
2023-02-13T20:38:19.187Z,10.27
2023-02-13T20:40:45.542Z,10.28
2023-02-13T20:43:11.934Z,10.31
2023-02-13T20:45:38.481Z,10.25
2023-02-13T20:48:04.867Z,10.26
2023-02-13T20:50:31.249Z,10.29
2023-02-13T20:52:58.442Z,10.24
2023-02-13T20:55:24.782Z,10.26
2023-02-13T20:57:51.115Z,10.22
2023-02-13T21:00:17.575Z,10.26
2023-02-13T21:02:43.963Z,10.17
2023-02-13T21:05:10.643Z,10.11
2023-02-13T21:07:37.052Z,10.09
2023-02-13T21:10:04.523Z,10.10
2023-02-13T21:12:30.968Z,10.16
2023-02-13T21:14:57.346Z,10.13
2023-02-13T21:17:23.694Z,10.19
2023-02-13T21:19:50.642Z,10.16
2023-02-13T21:22:17.018Z,10.10
2023-02-13T21:24:43.590Z,10.13
2023-02-13T21:27:10.780Z,10.12
2023-02-13T21:29:37.994Z,10.00
2023-02-13T21:32:04.775Z,9.98
2023-02-13T21:34:31.132Z,9.95
2023-02-13T21:36:57.549Z,9.88
2023-02-13T21:39:24.081Z,9.89
2023-02-13T21:41:50.433Z,9.91
2023-02-13T21:44:16.983Z,9.86
2023-02-13T21:46:45.311Z,9.87
2023-02-13T21:49:14.727Z,9.81
2023-02-13T21:51:41.226Z,9.79
2023-02-13T21:54:07.611Z,9.69
2023-02-13T21:56:37.705Z,9.64
2023-02-13T21:59:05.090Z,9.61
2023-02-13T22:01:37.560Z,9.61
2023-02-13T22:04:06.566Z,9.50
2023-02-13T22:06:36.206Z,9.54
2023-02-13T22:09:11.725Z,9.54
2023-02-13T22:11:39.066Z,9.56
2023-02-13T22:14:07.694Z,9.51
2023-02-13T22:16:36.735Z,9.48
2023-02-13T22:19:06.002Z,9.47
2023-02-13T22:21:33.868Z,9.35
2023-02-13T22:24:00.838Z,9.42
2023-02-13T22:26:29.760Z,9.40
2023-02-13T22:29:00.703Z,9.41
2023-02-13T22:31:27.150Z,9.37
2023-02-13T22:34:04.242Z,9.33
2023-02-13T22:36:32.574Z,9.35
2023-02-13T22:38:58.968Z,9.28
2023-02-13T22:41:27.134Z,9.23
2023-02-13T22:43:54.142Z,9.23
2023-02-13T22:46:25.746Z,9.15
2023-02-13T22:48:53.213Z,9.19
2023-02-13T22:51:30.348Z,9.20
2023-02-13T22:53:58.083Z,9.12
2023-02-13T22:56:25.657Z,9.05
2023-02-13T22:58:52.377Z,8.98
2023-02-13T23:01:21.463Z,9.03
2023-02-13T23:03:48.273Z,9.02
2023-02-13T23:06:15.839Z,9.01
2023-02-13T23:08:43.309Z,8.95
2023-02-13T23:11:33.417Z,9.01
2023-02-13T23:14:00.037Z,9.03
2023-02-13T23:16:27.718Z,8.91
2023-02-13T23:18:57.798Z,8.91
2023-02-13T23:21:25.499Z,8.91
2023-02-13T23:23:52.331Z,8.85
2023-02-13T23:26:19.271Z,8.85
2023-02-13T23:28:45.669Z,8.76
2023-02-13T23:31:12.508Z,8.74
2023-02-13T23:33:39.117Z,8.71
2023-02-13T23:36:05.938Z,8.71
2023-02-13T23:38:32.463Z,8.69
2023-02-13T23:41:06.820Z,8.59
2023-02-13T23:43:33.266Z,8.48
2023-02-13T23:45:59.685Z,8.46
2023-02-13T23:48:26.125Z,8.43
2023-02-13T23:50:53.400Z,8.40
2023-02-13T23:53:19.894Z,8.40
2023-02-13T23:55:46.438Z,8.37
2023-02-13T23:58:12.846Z,8.29
